Time;durP1;ratioP1;P1;durP2;ratioP2;P2;SDS_P1;SDS_P2;PMS_P1;PMS_P2;Temp;Humidity;BMP_temperature;BMP_pressure;BME280_temperature;BME280_humidity;BME280_pressure;Samples;Min_cycle;Max_cycle;Signal;HPM_P1;HPM_P2
2022/10/21 00:03:08;;;;;;;4.32;1.63;;;21.10;81.90;;;;;;10534882;28;20075;-38
2022/10/21 00:08:11;;;;;;;4.07;2.10;;;21.10;81.70;;;;;;10542015;28;20055;-41
2022/10/21 00:13:13;;;;;;;3.72;1.67;;;21.30;81.80;;;;;;10540510;28;20189;-40
2022/10/21 00:18:15;;;;;;;3.40;1.95;;;21.10;81.60;;;;;;10538091;28;20059;-43
2022/10/21 00:23:18;;;;;;;2.88;1.60;;;21.10;81.80;;;;;;10544322;28;20479;-42
2022/10/21 00:28:20;;;;;;;3.90;1.95;;;21.10;81.50;;;;;;10543677;28;20133;-44
2022/10/21 00:33:23;;;;;;;4.22;2.25;;;21.10;81.50;;;;;;10529763;28;20082;-43
2022/10/21 00:38:26;;;;;;;3.85;1.90;;;20.90;81.50;;;;;;10537770;28;20035;-41
2022/10/21 00:43:28;;;;;;;3.30;1.63;;;21.10;81.60;;;;;;10537908;28;20087;-46
2022/10/21 00:48:34;;;;;;;3.88;1.80;;;21.10;81.60;;;;;;10525608;28;20064;-44
2022/10/21 00:53:39;;;;;;;3.13;1.70;;;21.10;81.60;;;;;;10529768;28;20048;-42
2022/10/21 00:58:41;;;;;;;2.47;1.65;;;21.10;81.50;;;;;;10533230;28;20398;-41
2022/10/21 01:03:43;;;;;;;1.67;1.58;;;21.10;81.50;;;;;;10537787;28;20074;-40
2022/10/21 01:08:46;;;;;;;2.17;1.52;;;21.10;81.50;;;;;;10526167;28;20048;-45
2022/10/21 01:14:00;;;;;;;4.50;1.50;;;21.10;81.60;;;;;;10531357;28;20131;-42
2022/10/21 01:19:16;;;;;;;5.88;1.52;;;21.10;81.60;;;;;;10537222;28;20444;-42
2022/10/21 01:24:49;;;;;;;3.13;1.55;;;21.10;81.60;;;;;;10534521;28;20044;-43
2022/10/21 01:30:28;;;;;;;5.57;1.77;;;21.10;81.60;;;;;;10543355;28;20048;-42
2022/10/21 01:35:39;;;;;;;3.22;1.60;;;21.10;81.60;;;;;;10529595;28;20697;-42
2022/10/21 01:40:49;;;;;;;3.70;1.50;;;21.10;81.70;;;;;;10547321;28;20075;-41
2022/10/21 01:45:56;;;;;;;3.38;1.52;;;21.10;81.70;;;;;;10533314;28;20101;-44
2022/10/21 01:51:01;;;;;;;2.22;1.52;;;21.10;81.80;;;;;;10530949;28;20047;-44
2022/10/21 01:56:04;;;;;;;4.13;1.60;;;21.10;81.70;;;;;;10534751;28;20159;-44
2022/10/21 02:01:11;;;;;;;1.98;1.42;;;21.00;81.80;;;;;;10537676;28;20072;-45
2022/10/21 02:06:13;;;;;;;2.72;1.45;;;21.00;81.90;;;;;;10533517;28;20131;-43
2022/10/21 02:11:17;;;;;;;2.00;1.65;;;21.00;81.80;;;;;;10532134;28;20040;-44
2022/10/21 02:16:25;;;;;;;2.58;1.40;;;21.00;82.00;;;;;;10530799;28;20134;-43
2022/10/21 02:21:30;;;;;;;2.58;1.63;;;21.00;82.00;;;;;;10538789;28;20575;-43
2022/10/21 02:26:32;;;;;;;4.32;1.80;;;21.00;82.00;;;;;;10541469;28;20138;-44
2022/10/21 02:31:47;;;;;;;2.58;1.63;;;21.00;82.10;;;;;;10542450;28;20048;-40
2022/10/21 02:36:55;;;;;;;2.42;1.58;;;21.00;82.30;;;;;;10539261;28;20101;-44
2022/10/21 02:41:59;;;;;;;2.85;1.73;;;21.00;82.30;;;;;;10531635;28;20098;-40
2022/10/21 02:47:03;;;;;;;1.75;1.35;;;21.00;82.30;;;;;;10530998;28;20056;-42
2022/10/21 02:52:05;;;;;;;2.75;1.67;;;20.90;82.40;;;;;;10529486;28;20148;-42
2022/10/21 02:57:07;;;;;;;3.15;1.50;;;21.00;82.30;;;;;;10531910;28;20150;-40
2022/10/21 03:02:10;;;;;;;2.80;1.65;;;20.90;82.40;;;;;;10530566;28;20123;-41
2022/10/21 03:07:12;;;;;;;2.40;1.80;;;20.70;82.40;;;;;;10528862;28;20076;-44
2022/10/21 03:12:14;;;;;;;3.33;1.63;;;20.90;82.50;;;;;;10530699;28;20079;-43
2022/10/21 03:17:17;;;;;;;3.03;1.88;;;20.90;82.50;;;;;;10532173;28;20071;-42
2022/10/21 03:22:19;;;;;;;3.13;1.48;;;20.90;82.50;;;;;;10535493;28;20429;-42
2022/10/21 03:27:21;;;;;;;2.70;1.52;;;20.90;82.60;;;;;;10537960;28;20048;-43
2022/10/21 03:32:24;;;;;;;4.15;1.83;;;20.90;82.50;;;;;;10538792;28;20067;-43
2022/10/21 03:37:26;;;;;;;2.63;1.60;;;20.90;82.50;;;;;;10538115;28;20068;-40
2022/10/21 03:42:28;;;;;;;6.13;1.98;;;20.90;82.50;;;;;;10537185;28;20055;-41
2022/10/21 03:47:31;;;;;;;5.80;2.83;;;20.90;82.60;;;;;;10534309;28;20083;-45
2022/10/21 03:52:34;;;;;;;2.67;2.40;;;20.90;82.60;;;;;;10537126;28;20124;-43
2022/10/21 03:57:36;;;;;;;3.78;1.58;;;20.90;82.70;;;;;;10537341;28;20135;-42
2022/10/21 04:02:40;;;;;;;2.75;1.40;;;20.90;82.80;;;;;;10537703;28;20460;-44
2022/10/21 04:07:42;;;;;;;2.50;1.88;;;20.90;82.60;;;;;;10534599;28;20044;-44
2022/10/21 04:12:43;;;;;;;;;;;21.20;83.60;;;;;;10536459;28;20040;-40
2022/10/21 04:17:47;;;;;;;4.60;1.70;;;20.80;82.90;;;;;;10535322;28;19955;-46
2022/10/21 04:22:49;;;;;;;2.88;1.63;;;21.10;82.90;;;;;;10535615;28;20078;-42
2022/10/21 04:27:50;;;;;;;4.70;1.60;;;20.80;82.90;;;;;;10535226;28;20139;-42
2022/10/21 04:32:54;;;;;;;3.22;1.70;;;20.80;82.90;;;;;;10536251;28;20491;-44
2022/10/21 04:37:55;;;;;;;2.90;1.88;;;20.80;82.90;;;;;;10531840;28;20067;-40
2022/10/21 04:42:57;;;;;;;3.72;1.48;;;20.80;82.80;;;;;;10536670;28;20469;-40
2022/10/21 04:48:00;;;;;;;3.53;1.92;;;20.80;83.30;;;;;;10535618;28;20106;-40
2022/10/21 04:53:02;;;;;;;3.65;1.85;;;20.80;83.30;;;;;;10533521;28;20468;-46
2022/10/21 04:58:04;;;;;;;4.30;1.85;;;20.80;83.60;;;;;;10536021;28;20492;-44
2022/10/21 05:03:07;;;;;;;1.52;1.35;;;20.80;83.70;;;;;;10534600;28;20040;-43
2022/10/21 05:08:09;;;;;;;1.75;1.27;;;20.80;83.70;;;;;;10528273;28;20052;-44
2022/10/21 05:13:11;;;;;;;2.45;1.50;;;20.80;83.70;;;;;;10537455;28;20562;-41
2022/10/21 05:18:14;;;;;;;2.30;1.42;;;20.80;84.20;;;;;;10531999;28;20377;-43
2022/10/21 05:23:16;;;;;;;2.17;1.33;;;20.80;83.30;;;;;;10539797;28;20516;-41
2022/10/21 05:28:19;;;;;;;2.20;1.65;;;20.80;83.30;;;;;;10534247;28;20097;-45
2022/10/21 05:33:22;;;;;;;3.88;1.40;;;20.80;83.50;;;;;;10543204;28;20089;-43
2022/10/21 05:38:24;;;;;;;3.63;1.73;;;20.70;83.50;;;;;;10538580;28;20071;-45
2022/10/21 05:43:27;;;;;;;1.88;1.45;;;20.70;83.30;;;;;;10531451;28;20044;-41
2022/10/21 05:48:30;;;;;;;2.45;1.60;;;20.70;83.40;;;;;;10527246;28;20139;-41
2022/10/21 05:53:32;;;;;;;3.22;1.30;;;20.80;83.20;;;;;;10538728;28;20120;-40
2022/10/21 05:58:35;;;;;;;3.50;1.50;;;20.70;83.20;;;;;;10546252;28;20044;-42
2022/10/21 06:03:38;;;;;;;4.20;1.45;;;20.70;83.20;;;;;;10529802;28;20498;-43
2022/10/21 06:08:40;;;;;;;5.03;2.05;;;20.70;83.30;;;;;;10532746;28;20048;-42
2022/10/21 06:13:42;;;;;;;1.65;1.27;;;20.70;83.40;;;;;;10532208;28;20048;-42
2022/10/21 06:18:45;;;;;;;;;;;20.70;83.30;;;;;;10535489;28;20599;-41
2022/10/21 06:23:47;;;;;;;4.93;1.40;;;20.70;83.80;;;;;;10532814;28;20385;-41
2022/10/21 06:28:49;;;;;;;3.42;1.45;;;20.70;83.40;;;;;;10536024;28;20481;-43
2022/10/21 06:33:52;;;;;;;2.22;1.20;;;20.70;83.20;;;;;;10541402;28;20082;-43
2022/10/21 06:38:54;;;;;;;2.53;1.02;;;20.70;83.10;;;;;;10534102;28;20097;-43
2022/10/21 06:43:56;;;;;;;3.22;1.67;;;20.80;83.00;;;;;;10530679;28;20097;-46
2022/10/21 06:48:59;;;;;;;2.55;1.02;;;20.70;83.00;;;;;;10530404;28;20048;-46
2022/10/21 06:54:00;;;;;;;2.22;1.10;;;20.60;82.90;;;;;;10529826;28;20127;-46
2022/10/21 06:59:02;;;;;;;4.80;2.25;;;20.60;82.90;;;;;;10537453;28;20098;-42
2022/10/21 07:04:06;;;;;;;2.17;1.52;;;21.10;83.20;;;;;;10531384;28;20083;-41
2022/10/21 07:09:09;;;;;;;2.38;0.80;;;20.70;83.00;;;;;;10537555;28;20686;-40
2022/10/21 07:14:11;;;;;;;3.38;1.02;;;20.70;82.80;;;;;;10536788;28;20127;-39
2022/10/21 07:19:14;;;;;;;;;;;20.60;82.60;;;;;;10543398;28;20052;-41
2022/10/21 07:24:16;;;;;;;3.65;1.30;;;20.60;82.70;;;;;;10537895;28;19947;-35
2022/10/21 07:29:18;;;;;;;3.72;1.45;;;20.60;82.70;;;;;;10524119;28;20468;-43
2022/10/21 07:34:22;;;;;;;1.70;1.10;;;20.70;82.90;;;;;;10535117;28;20040;-48
2022/10/21 07:39:26;;;;;;;3.30;1.02;;;20.70;83.10;;;;;;10534847;28;20048;-43
2022/10/21 07:44:28;;;;;;;3.50;1.33;;;20.70;82.70;;;;;;10543050;28;20047;-40
2022/10/21 07:49:31;;;;;;;2.85;1.10;;;20.70;82.90;;;;;;10540946;28;20079;-40
2022/10/21 07:54:33;;;;;;;3.08;1.40;;;20.70;82.70;;;;;;10531937;28;20064;-42
2022/10/21 07:59:35;;;;;;;2.55;1.20;;;20.70;82.80;;;;;;10530799;28;20086;-44
2022/10/21 08:04:38;;;;;;;3.47;1.10;;;20.70;82.70;;;;;;10540231;28;20139;-41
2022/10/21 08:09:40;;;;;;;3.38;1.02;;;21.00;83.00;;;;;;10535514;28;20055;-42
2022/10/21 08:14:42;;;;;;;4.18;1.15;;;20.70;82.70;;;;;;10539164;28;20127;-43
2022/10/21 08:19:45;;;;;;;5.05;1.27;;;20.70;82.40;;;;;;10536102;28;20126;-41
2022/10/21 08:24:47;;;;;;;1.77;1.10;;;20.80;82.70;;;;;;10542076;28;20144;-44
2022/10/21 08:29:49;;;;;;;1.35;1.02;;;20.80;82.60;;;;;;10534479;28;20473;-42
2022/10/21 08:34:52;;;;;;;5.18;1.20;;;20.80;82.40;;;;;;10536790;28;20127;-43
2022/10/21 08:39:54;;;;;;;7.35;1.77;;;20.80;82.30;;;;;;10537188;28;20048;-42
2022/10/21 08:45:01;;;;;;;11.02;2.22;;;20.80;82.30;;;;;;10533587;28;20048;-42
2022/10/21 08:50:11;;;;;;;2.50;1.20;;;20.70;82.50;;;;;;10532764;28;20048;-43
2022/10/21 08:55:18;;;;;;;8.82;1.50;;;20.70;82.30;;;;;;10532298;28;20052;-44
2022/10/21 09:00:23;;;;;;;5.65;1.13;;;20.70;82.80;;;;;;10534633;28;20048;-43
2022/10/21 09:05:55;;;;;;;2.05;1.30;;;20.80;82.90;;;;;;10532978;28;20072;-42
2022/10/21 09:11:01;;;;;;;;;;;20.60;83.50;;;;;;10523602;28;20101;-42
2022/10/21 09:16:10;;;;;;;4.53;1.40;;;20.60;83.70;;;;;;10533464;28;19930;-41
2022/10/21 09:21:22;;;;;;;4.93;1.35;;;20.50;83.80;;;;;;10539058;28;20044;-44
2022/10/21 09:26:34;;;;;;;4.60;1.20;;;20.50;84.30;;;;;;10545371;28;20079;-42
2022/10/21 09:31:36;;;;;;;6.25;1.38;;;20.30;85.70;;;;;;10533293;28;20880;-41
2022/10/21 09:36:47;;;;;;;6.25;2.25;;;20.50;84.00;;;;;;10534118;28;20085;-43
2022/10/21 09:41:55;;;;;;;5.13;1.80;;;20.40;84.60;;;;;;10530099;28;20468;-45
2022/10/21 09:46:57;;;;;;;6.93;1.92;;;20.00;87.70;;;;;;10534467;28;20419;-42
2022/10/21 09:52:03;;;;;;;5.03;1.95;;;20.00;87.90;;;;;;10534651;28;20478;-44
2022/10/21 09:57:13;;;;;;;3.65;1.40;;;20.00;87.90;;;;;;10534171;28;20067;-44
2022/10/21 10:02:17;;;;;;;3.42;1.52;;;19.50;92.30;;;;;;10531052;28;20134;-48
2022/10/21 10:07:29;;;;;;;5.03;1.80;;;19.50;91.30;;;;;;10532769;28;20048;-44
2022/10/21 10:12:31;;;;;;;7.03;2.08;;;19.00;92.80;;;;;;10530443;28;20495;-46
2022/10/21 10:17:37;;;;;;;9.93;2.85;;;19.20;93.80;;;;;;10530327;28;20078;-48
2022/10/21 10:22:42;;;;;;;8.43;2.55;;;18.70;96.00;;;;;;10534097;28;20048;-45
2022/10/21 10:27:48;;;;;;;4.70;2.15;;;18.80;93.90;;;;;;10533919;28;20070;-45
2022/10/21 10:32:52;;;;;;;4.70;1.73;;;19.00;92.90;;;;;;10534942;28;20047;-44
2022/10/21 10:37:58;;;;;;;7.25;1.88;;;19.90;90.00;;;;;;10537455;28;20513;-45
2022/10/21 10:43:04;;;;;;;7.70;1.30;;;19.90;91.20;;;;;;10540540;28;20126;-46
2022/10/21 10:48:06;;;;;;;3.80;1.77;;;19.50;91.40;;;;;;10540796;28;20044;-45
2022/10/21 10:53:23;;;;;;;;;;;19.90;90.00;;;;;;10542989;28;20611;-49
2022/10/21 10:58:28;;;;;;;5.07;1.40;;;20.40;86.80;;;;;;10540506;28;19931;-44
2022/10/21 11:03:38;;;;;;;3.47;1.65;;;20.00;91.00;;;;;;10548889;28;20055;-46
2022/10/21 11:08:43;;;;;;;7.70;2.10;;;20.10;91.60;;;;;;10541617;28;20048;-45
2022/10/21 11:13:46;;;;;;;11.45;2.75;;;19.70;90.50;;;;;;10538812;28;20048;-46
2022/10/21 11:18:54;;;;;;;7.75;2.40;;;19.70;91.30;;;;;;10536232;28;20159;-44
2022/10/21 11:24:14;;;;;;;6.88;2.70;;;19.30;95.90;;;;;;10544872;28;20076;-46
2022/10/21 11:29:30;;;;;;;4.82;1.35;;;20.00;91.20;;;;;;10549316;28;20048;-43
2022/10/21 11:34:46;;;;;;;6.57;1.80;;;20.20;91.70;;;;;;10536176;28;20075;-45
2022/10/21 11:39:54;;;;;;;10.75;2.00;;;20.40;88.90;;;;;;10539401;28;20150;-46
2022/10/21 11:45:09;;;;;;;3.22;1.67;;;19.80;92.50;;;;;;10531952;28;20128;-42
2022/10/21 11:50:19;;;;;;;8.13;2.42;;;19.60;93.60;;;;;;10530318;28;20134;-46
2022/10/21 11:55:37;;;;;;;2.47;1.10;;;20.10;94.80;;;;;;10526767;28;20040;-45
2022/10/21 12:00:48;;;;;;;3.60;1.02;;;20.00;90.90;;;;;;10531178;28;20048;-46
2022/10/21 12:06:02;;;;;;;4.20;1.13;;;19.60;91.30;;;;;;10533162;28;20046;-44
2022/10/21 12:11:10;;;;;;;5.15;1.13;;;20.30;91.00;;;;;;10535801;28;20048;-43
2022/10/21 12:16:16;;;;;;;8.15;1.90;;;20.40;91.00;;;;;;10533548;28;20071;-42
2022/10/21 12:21:23;;;;;;;3.17;1.27;;;19.80;93.50;;;;;;10553147;28;20154;-45
2022/10/21 12:26:28;;;;;;;2.70;1.20;;;20.10;90.50;;;;;;10556802;28;20069;-46
2022/10/21 12:31:48;;;;;;;4.97;1.48;;;20.80;87.60;;;;;;10538103;28;20097;-45
2022/10/21 12:36:53;;;;;;;5.45;1.20;;;20.70;92.50;;;;;;10532685;28;20457;-47
2022/10/21 12:42:05;;;;;;;5.47;1.67;;;20.70;92.60;;;;;;10537465;28;20131;-45
2022/10/21 12:47:24;;;;;;;4.10;1.70;;;21.20;91.70;;;;;;10535049;28;20051;-45
2022/10/21 12:52:26;;;;;;;8.15;1.33;;;21.20;91.00;;;;;;10537564;28;20101;-43
2022/10/21 12:57:31;;;;;;;7.50;1.30;;;21.30;85.70;;;;;;10535718;28;20052;-48
2022/10/21 13:02:58;;;;;;;3.75;1.55;;;21.40;88.40;;;;;;10521858;28;20129;-46
2022/10/21 13:08:26;;;;;;;1.45;1.08;;;21.60;88.80;;;;;;10532406;28;20055;-44
2022/10/21 13:13:31;;;;;;;3.53;1.23;;;21.70;87.70;;;;;;10530424;28;20503;-45
2022/10/21 13:19:02;;;;;;;2.58;1.02;;;21.80;84.60;;;;;;10533346;28;20055;-45
2022/10/21 13:24:12;;;;;;;6.15;0.98;;;21.80;85.70;;;;;;10503698;28;20392;-45
2022/10/21 13:29:33;;;;;;;9.52;1.40;;;22.00;84.20;;;;;;10532717;28;20565;-46
2022/10/21 13:34:38;;;;;;;2.72;0.90;;;22.30;80.10;;;;;;10532812;28;20052;-45
2022/10/21 13:39:40;;;;;;;2.22;0.82;;;22.60;81.90;;;;;;10528754;28;20530;-44
2022/10/21 13:44:50;;;;;;;1.98;0.60;;;22.50;78.00;;;;;;10533950;28;20063;-47
2022/10/21 13:49:55;;;;;;;7.82;1.60;;;22.40;78.20;;;;;;10529218;28;20079;-42
2022/10/21 13:54:58;;;;;;;4.22;1.42;;;22.70;79.60;;;;;;10529305;28;20044;-44
2022/10/21 14:00:01;;;;;;;2.58;0.88;;;23.20;76.50;;;;;;10532276;28;20051;-46
2022/10/21 14:05:05;;;;;;;4.10;0.80;;;23.70;74.90;;;;;;10541804;28;20119;-44
2022/10/21 14:10:07;;;;;;;2.55;0.70;;;23.10;74.40;;;;;;10525691;28;20500;-53
2022/10/21 14:15:16;;;;;;;2.03;0.73;;;22.90;76.20;;;;;;10531152;28;20101;-46
2022/10/21 14:20:25;;;;;;;1.52;0.45;;;23.20;75.80;;;;;;10538574;28;20492;-45
2022/10/21 14:25:27;;;;;;;3.20;0.85;;;22.80;76.50;;;;;;10544715;28;20074;-40
2022/10/21 14:30:33;;;;;;;0.93;0.45;;;22.90;76.00;;;;;;10535369;28;20080;-46
2022/10/21 14:35:39;;;;;;;3.42;0.70;;;23.00;76.20;;;;;;10529592;28;20050;-43
2022/10/21 14:40:42;;;;;;;4.03;0.80;;;23.00;76.40;;;;;;10530083;28;20071;-47
2022/10/21 14:45:45;;;;;;;3.42;0.73;;;23.20;77.40;;;;;;10531219;28;20050;-45
2022/10/21 14:50:53;;;;;;;1.05;0.80;;;23.10;76.60;;;;;;10530455;28;20296;-47
2022/10/21 14:55:58;;;;;;;4.38;0.70;;;23.10;76.20;;;;;;10534659;28;20120;-45
2022/10/21 15:01:02;;;;;;;3.03;0.80;;;23.10;75.90;;;;;;10523966;28;20040;-45
2022/10/21 15:06:18;;;;;;;2.45;0.50;;;23.10;75.90;;;;;;10530222;28;20060;-45
2022/10/21 15:11:31;;;;;;;2.60;0.70;;;23.20;75.70;;;;;;10528359;28;20480;-44
2022/10/21 15:16:33;;;;;;;2.25;0.60;;;23.20;75.70;;;;;;10519734;28;20071;-44
2022/10/21 15:21:39;;;;;;;8.85;0.85;;;23.20;75.50;;;;;;10540752;28;20127;-46
2022/10/21 15:26:41;;;;;;;5.90;1.30;;;23.20;75.80;;;;;;10543729;28;20131;-47
2022/10/21 15:31:43;;;;;;;0.90;0.52;;;23.20;75.80;;;;;;10533738;28;20048;-44
2022/10/21 15:36:46;;;;;;;3.72;1.10;;;23.20;76.00;;;;;;10537284;28;20093;-47
2022/10/21 15:41:52;;;;;;;4.88;1.70;;;23.30;76.00;;;;;;10525245;28;20075;-45
2022/10/21 15:46:59;;;;;;;3.38;0.82;;;23.00;75.90;;;;;;10526854;28;20381;-44
2022/10/21 15:52:02;;;;;;;1.63;0.45;;;23.30;76.30;;;;;;10532197;28;20044;-43
2022/10/21 15:57:14;;;;;;;4.93;0.68;;;23.40;76.40;;;;;;10536733;28;20089;-47
2022/10/21 16:02:17;;;;;;;2.67;0.70;;;23.30;76.10;;;;;;10532404;28;20085;-43
2022/10/21 16:07:22;;;;;;;5.90;1.35;;;23.30;76.40;;;;;;10533607;28;20091;-42
2022/10/21 16:12:29;;;;;;;4.30;0.75;;;23.30;76.40;;;;;;10533927;28;20167;-41
2022/10/21 16:17:31;;;;;;;3.13;0.80;;;23.20;76.30;;;;;;10530378;28;20481;-43
2022/10/21 16:22:34;;;;;;;1.52;0.73;;;23.20;76.50;;;;;;10535521;28;20067;-44
2022/10/21 16:27:36;;;;;;;4.53;0.70;;;23.20;76.60;;;;;;10530586;28;20491;-42
2022/10/21 16:32:38;;;;;;;2.88;0.88;;;23.20;76.70;;;;;;10530054;28;20062;-41
2022/10/21 16:37:41;;;;;;;;;;;23.20;76.80;;;;;;10525979;28;20047;-46
2022/10/21 16:42:43;;;;;;;1.52;0.57;;;23.10;76.90;;;;;;10532897;28;19977;-44
2022/10/21 16:47:50;;;;;;;1.27;0.55;;;23.10;77.00;;;;;;10531058;28;20131;-45
2022/10/21 16:52:53;;;;;;;2.78;1.08;;;23.10;77.10;;;;;;10530749;28;20541;-42
2022/10/21 16:57:55;;;;;;;2.15;1.08;;;23.10;77.30;;;;;;10531067;28;20146;-45
2022/10/21 17:02:57;;;;;;;2.15;0.85;;;23.10;77.50;;;;;;10527658;28;20040;-40
2022/10/21 17:08:01;;;;;;;3.15;0.93;;;23.00;77.50;;;;;;10528097;28;20062;-41
2022/10/21 17:13:02;;;;;;;6.82;2.72;;;23.50;78.40;;;;;;10532179;28;20079;-43
2022/10/21 17:18:05;;;;;;;3.45;1.10;;;22.70;77.60;;;;;;10532530;28;20048;-40
2022/10/21 17:23:10;;;;;;;2.70;1.00;;;23.00;78.00;;;;;;10536645;28;20132;-44
2022/10/21 17:28:13;;;;;;;3.67;0.93;;;23.00;78.50;;;;;;10533134;28;20043;-45
2022/10/21 17:33:15;;;;;;;1.95;0.90;;;22.90;78.40;;;;;;10529597;28;20105;-44
2022/10/21 17:38:18;;;;;;;7.25;1.13;;;22.90;79.30;;;;;;10529359;28;20507;-41
2022/10/21 17:43:20;;;;;;;4.05;1.15;;;23.40;78.70;;;;;;10530818;28;20068;-43
2022/10/21 17:48:22;;;;;;;4.82;1.17;;;23.50;76.60;;;;;;10531855;28;20097;-45
2022/10/21 17:53:26;;;;;;;8.10;1.08;;;23.70;75.40;;;;;;10531070;28;20043;-42
2022/10/21 17:58:29;;;;;;;5.45;0.90;;;23.90;76.80;;;;;;10528299;28;20090;-45
2022/10/21 18:03:31;;;;;;;3.47;1.00;;;24.20;74.80;;;;;;10529167;28;20557;-43
2022/10/21 18:08:35;;;;;;;2.83;0.82;;;23.80;74.60;;;;;;10528920;28;20048;-40
2022/10/21 18:13:37;;;;;;;3.40;1.10;;;23.90;73.80;;;;;;10527806;28;20130;-40
2022/10/21 18:18:39;;;;;;;6.85;1.17;;;23.70;74.90;;;;;;10525687;28;20187;-41
2022/10/21 18:23:44;;;;;;;5.70;1.48;;;23.50;75.80;;;;;;10527273;28;20048;-43
2022/10/21 18:28:49;;;;;;;2.80;1.08;;;21.50;80.20;;;;;;10528994;28;20067;-41
2022/10/21 18:33:53;;;;;;;6.82;1.30;;;21.60;86.30;;;;;;10529474;28;20113;-41
2022/10/21 18:38:58;;;;;;;3.80;1.10;;;21.90;84.10;;;;;;10528945;28;20044;-41
2022/10/21 18:44:06;;;;;;;7.43;1.42;;;21.50;81.70;;;;;;10528734;28;20040;-42
2022/10/21 18:49:12;;;;;;;4.07;0.93;;;21.20;86.80;;;;;;10528180;28;20047;-41
2022/10/21 18:54:15;;;;;;;5.32;1.45;;;21.80;82.00;;;;;;10530612;28;20139;-40
2022/10/21 18:59:17;;;;;;;5.38;1.70;;;21.90;83.20;;;;;;10535270;28;20060;-42
2022/10/21 19:04:19;;;;;;;2.33;1.20;;;22.20;82.80;;;;;;10532653;28;20127;-41
2022/10/21 19:09:24;;;;;;;2.38;1.00;;;21.80;86.30;;;;;;10533175;28;20052;-40
2022/10/21 19:14:27;;;;;;;6.05;1.05;;;22.10;83.30;;;;;;10534370;28;20048;-43
2022/10/21 19:19:29;;;;;;;1.92;0.82;;;22.10;79.70;;;;;;10533177;28;20080;-41
2022/10/21 19:24:33;;;;;;;2.97;0.90;;;21.90;82.80;;;;;;10538546;28;20066;-40
2022/10/21 19:29:35;;;;;;;2.67;0.82;;;22.60;81.50;;;;;;10531222;28;20044;-41
2022/10/21 19:34:37;;;;;;;5.25;0.93;;;23.00;78.50;;;;;;10528819;28;20143;-40
2022/10/21 19:39:40;;;;;;;1.08;0.65;;;23.30;76.30;;;;;;10528366;28;20051;-40
2022/10/21 19:44:42;;;;;;;2.85;0.90;;;23.00;76.20;;;;;;10527092;28;20108;-41
2022/10/21 19:49:44;;;;;;;7.28;1.23;;;23.30;75.80;;;;;;10530299;28;20050;-40
2022/10/21 19:54:49;;;;;;;4.38;0.73;;;23.10;76.20;;;;;;10531122;28;20135;-40
2022/10/21 19:59:51;;;;;;;1.70;0.80;;;23.50;74.50;;;;;;10529771;28;20140;-43
2022/10/21 20:04:53;;;;;;;;;;;23.60;73.80;;;;;;10532814;28;20067;-44
2022/10/21 20:09:56;;;;;;;2.90;0.75;;;23.60;73.70;;;;;;10533644;28;19920;-40
2022/10/21 20:14:58;;;;;;;4.72;1.13;;;23.50;73.80;;;;;;10531642;28;20067;-42
2022/10/21 20:20:00;;;;;;;4.05;0.80;;;23.80;73.40;;;;;;10529635;28;20186;-40
2022/10/21 20:25:04;;;;;;;2.00;0.82;;;23.50;73.20;;;;;;10531765;28;20046;-42
2022/10/21 20:30:07;;;;;;;1.90;0.95;;;23.50;73.60;;;;;;10529557;28;20075;-43
2022/10/21 20:35:09;;;;;;;5.30;0.98;;;23.50;73.70;;;;;;10526956;28;20048;-43
2022/10/21 20:40:12;;;;;;;2.50;1.20;;;23.40;74.20;;;;;;10530252;28;20135;-41
2022/10/21 20:45:14;;;;;;;2.42;0.80;;;23.30;74.00;;;;;;10530113;28;20097;-40
2022/10/21 20:50:16;;;;;;;3.55;1.30;;;23.40;73.50;;;;;;10529499;28;20465;-40
2022/10/21 20:55:20;;;;;;;;;;;23.30;73.90;;;;;;10531541;28;20071;-41
2022/10/21 21:00:21;;;;;;;4.82;0.85;;;23.40;73.30;;;;;;10529859;28;20073;-42
2022/10/21 21:05:23;;;;;;;;;;;23.40;73.50;;;;;;10531172;28;20052;-42
2022/10/21 21:10:27;;;;;;;8.88;1.40;;;23.40;73.70;;;;;;10528704;28;19955;-43
2022/10/21 21:15:28;;;;;;;2.13;1.10;;;23.30;74.00;;;;;;10531002;28;20071;-41
2022/10/21 21:20:31;;;;;;;1.23;0.90;;;23.20;74.20;;;;;;10532109;28;20120;-44
2022/10/21 21:25:34;;;;;;;5.82;1.40;;;23.20;74.20;;;;;;10534229;28;20079;-45
2022/10/21 21:30:36;;;;;;;3.53;0.98;;;23.10;74.60;;;;;;10528626;28;20082;-45
2022/10/21 21:35:38;;;;;;;5.07;1.00;;;23.10;75.00;;;;;;10527841;28;20133;-42
2022/10/21 21:40:44;;;;;;;6.18;1.67;;;23.40;74.70;;;;;;10527009;28;20497;-44
2022/10/21 21:45:46;;;;;;;5.35;0.93;;;23.10;75.00;;;;;;10500232;28;20050;-42
2022/10/21 21:50:49;;;;;;;5.60;1.00;;;23.20;74.00;;;;;;10528940;28;20048;-44
2022/10/21 21:55:52;;;;;;;4.90;1.20;;;23.10;74.30;;;;;;10528403;28;20109;-45
2022/10/21 22:00:54;;;;;;;3.83;1.02;;;23.00;74.90;;;;;;10529876;28;20047;-41
2022/10/21 22:05:55;;;;;;;3.13;0.98;;;23.00;75.00;;;;;;10529745;28;20052;-40
2022/10/21 22:11:04;;;;;;;7.22;1.20;;;23.20;74.30;;;;;;10528264;28;20159;-43
2022/10/21 22:16:07;;;;;;;3.92;1.50;;;23.30;73.80;;;;;;10531540;28;20448;-44
2022/10/21 22:21:11;;;;;;;4.22;1.50;;;23.00;74.10;;;;;;10527532;28;20052;-43
2022/10/21 22:26:15;;;;;;;6.57;1.35;;;23.20;73.80;;;;;;10532230;28;20044;-44
2022/10/21 22:31:18;;;;;;;5.25;1.10;;;23.20;74.10;;;;;;10539190;28;20439;-43
2022/10/21 22:36:20;;;;;;;3.63;1.25;;;23.10;74.20;;;;;;10540557;28;20427;-44
2022/10/21 22:41:23;;;;;;;6.43;2.10;;;22.90;73.30;;;;;;10540497;28;20109;-41
2022/10/21 22:46:25;;;;;;;4.85;1.58;;;23.10;73.60;;;;;;10537827;28;20218;-45
2022/10/21 22:51:27;;;;;;;9.38;1.67;;;23.10;73.70;;;;;;10540920;28;20500;-41
2022/10/21 22:56:30;;;;;;;12.43;1.85;;;23.10;74.10;;;;;;10544053;28;20523;-41
2022/10/21 23:01:33;;;;;;;2.92;1.80;;;23.00;73.90;;;;;;10541753;28;20489;-42
2022/10/21 23:06:35;;;;;;;5.00;1.90;;;23.10;74.20;;;;;;10542136;28;20047;-39
2022/10/21 23:11:39;;;;;;;3.08;1.10;;;23.00;74.40;;;;;;10541042;28;20052;-43
2022/10/21 23:16:41;;;;;;;3.67;1.13;;;22.80;74.80;;;;;;10542827;28;20476;-44
2022/10/21 23:21:43;;;;;;;4.05;1.13;;;23.30;74.30;;;;;;10543399;28;20142;-43
2022/10/21 23:26:46;;;;;;;;;;;22.80;74.10;;;;;;10544418;28;20664;-43
2022/10/21 23:31:48;;;;;;;6.13;1.30;;;23.10;73.90;;;;;;10545266;28;20728;-43
2022/10/21 23:36:50;;;;;;;8.52;1.50;;;23.00;74.00;;;;;;10545432;28;20050;-40
2022/10/21 23:41:53;;;;;;;4.80;1.30;;;23.00;74.00;;;;;;10536866;28;20079;-44
2022/10/21 23:46:55;;;;;;;5.50;1.08;;;23.00;74.10;;;;;;10537693;28;20036;-44
2022/10/21 23:51:58;;;;;;;;;;;23.10;73.80;;;;;;10539109;28;20532;-42
2022/10/21 23:57:01;;;;;;;4.78;1.20;;;23.00;73.90;;;;;;10540681;28;20387;-43
